createdAt,value
2022-08-28T00:00:43.947Z,98973.53
2022-08-28T00:03:13.694Z,98942.78
2022-08-28T00:05:43.740Z,98961.56
2022-08-28T00:08:14.795Z,98973.69
2022-08-28T00:10:43.586Z,98961.50
2022-08-28T00:13:19.106Z,98974.38
2022-08-28T00:15:51.441Z,98975.53
2022-08-28T00:18:21.000Z,98961.97
2022-08-28T00:20:51.582Z,98959.94
2022-08-28T00:23:21.052Z,98953.47
2022-08-28T00:25:49.766Z,98970.84
2022-08-28T00:28:24.344Z,98969.47
2022-08-28T00:30:59.243Z,98921.59
2022-08-28T00:33:34.733Z,98875.91
2022-08-28T00:36:05.212Z,98915.41
2022-08-28T00:38:33.336Z,98924.28
2022-08-28T00:41:04.948Z,98966.06
2022-08-28T00:43:44.666Z,98960.88
2022-08-28T00:46:21.245Z,98930.47
2022-08-28T00:48:50.781Z,98962.69
2022-08-28T00:51:39.832Z,98927.59
2022-08-28T00:54:09.674Z,98963.03
2022-08-28T00:56:40.857Z,98955.19
2022-08-28T00:59:15.765Z,98959.81
2022-08-28T01:01:47.374Z,98956.88
2022-08-28T01:04:20.357Z,98954.22
2022-08-28T01:06:54.112Z,98954.50
2022-08-28T01:09:27.555Z,98906.13
2022-08-28T01:12:03.340Z,98908.06
2022-08-28T01:14:34.165Z,98920.69
2022-08-28T01:17:03.146Z,98955.25
2022-08-28T01:19:46.817Z,98912.59
2022-08-28T01:22:31.131Z,98959.13
2022-08-28T01:25:03.805Z,98924.22
2022-08-28T01:27:31.997Z,98923.94
2022-08-28T01:30:00.128Z,98956.44
2022-08-28T01:32:53.294Z,98868.75
2022-08-28T01:35:33.089Z,98906.00
2022-08-28T01:38:03.914Z,98963.34
2022-08-28T01:40:38.506Z,98960.84
2022-08-28T01:43:21.355Z,98958.94
2022-08-28T01:45:54.025Z,98962.78
2022-08-28T01:48:26.949Z,98954.31
2022-08-28T01:50:56.167Z,98915.72
2022-08-28T01:53:32.606Z,98963.81
2022-08-28T01:56:04.982Z,98950.97
2022-08-28T01:58:37.948Z,98963.09
2022-08-28T02:01:18.913Z,98961.78
2022-08-28T02:03:48.019Z,98902.13
2022-08-28T02:06:17.956Z,98949.22
2022-08-28T02:08:47.089Z,98956.59
2022-08-28T02:11:16.739Z,98956.03
2022-08-28T02:13:44.797Z,98916.22
2022-08-28T02:16:13.625Z,98907.34
2022-08-28T02:18:42.102Z,98896.78
2022-08-28T02:21:12.575Z,98948.88
2022-08-28T02:23:43.512Z,98907.47
2022-08-28T02:26:13.560Z,98948.00
2022-08-28T02:28:42.525Z,98954.31
2022-08-28T02:31:11.946Z,98906.56
2022-08-28T02:33:43.774Z,98926.03
2022-08-28T02:36:16.104Z,98955.31
2022-08-28T02:38:47.656Z,98952.25
2022-08-28T02:41:15.904Z,98947.22
2022-08-28T02:43:44.228Z,98899.13
2022-08-28T02:46:12.659Z,98947.84
2022-08-28T02:48:40.915Z,98893.34
2022-08-28T02:51:14.232Z,98946.28
2022-08-28T02:53:43.567Z,98917.38
2022-08-28T02:56:12.815Z,98947.94
2022-08-28T02:58:41.317Z,98946.81
2022-08-28T03:01:12.541Z,98959.94
2022-08-28T03:03:42.711Z,98926.03
2022-08-28T03:06:15.336Z,98970.41
2022-08-28T03:08:44.747Z,98961.78
2022-08-28T03:11:13.037Z,98967.63
2022-08-28T03:13:42.462Z,98966.44
2022-08-28T03:16:10.796Z,98975.16
2022-08-28T03:18:39.768Z,98931.47
2022-08-28T03:21:09.335Z,98973.53
2022-08-28T03:23:38.829Z,98916.84
2022-08-28T03:26:16.070Z,98975.28
2022-08-28T03:28:52.265Z,98972.63
2022-08-28T03:31:24.847Z,98933.25
2022-08-28T03:33:54.808Z,98976.66
2022-08-28T03:36:28.284Z,98967.16
2022-08-28T03:39:00.937Z,98967.09
2022-08-28T03:41:31.592Z,98979.28
2022-08-28T03:44:01.502Z,98943.66
2022-08-28T03:46:35.264Z,98926.75
2022-08-28T03:49:05.146Z,98986.03
2022-08-28T03:51:35.070Z,98977.19
2022-08-28T03:54:04.981Z,98972.78
2022-08-28T03:56:33.333Z,98978.66
2022-08-28T03:59:05.669Z,98994.84
2022-08-28T04:01:35.213Z,98969.13
2022-08-28T04:04:04.484Z,98945.81
2022-08-28T04:06:32.781Z,98920.28
2022-08-28T04:09:02.556Z,98976.63
2022-08-28T04:11:30.528Z,98976.06
2022-08-28T04:13:58.751Z,98970.00
2022-08-28T04:16:27.358Z,98890.97
2022-08-28T04:18:55.573Z,98978.50
2022-08-28T04:21:26.291Z,98932.53
2022-08-28T04:23:56.180Z,98972.06
2022-08-28T04:26:27.337Z,98930.63
2022-08-28T04:28:56.027Z,98982.34
2022-08-28T04:31:32.427Z,98978.13
2022-08-28T04:34:03.117Z,98973.34
2022-08-28T04:36:34.869Z,98980.00
2022-08-28T04:39:06.293Z,98968.88
2022-08-28T04:41:34.818Z,98976.09
2022-08-28T04:44:03.790Z,98949.69
2022-08-28T04:46:32.063Z,98965.66
2022-08-28T04:49:00.962Z,98978.44
2022-08-28T04:51:29.523Z,98969.44
2022-08-28T04:53:59.092Z,98980.13
2022-08-28T04:56:27.419Z,98917.63
2022-08-28T04:58:55.751Z,98968.38
2022-08-28T05:01:25.419Z,98948.72
2022-08-28T05:04:02.431Z,98919.34
2022-08-28T05:06:33.227Z,98927.97
2022-08-28T05:09:03.908Z,98915.03
2022-08-28T05:11:34.058Z,98924.19
2022-08-28T05:14:15.878Z,98957.78
2022-08-28T05:16:51.449Z,98916.59
2022-08-28T05:19:21.787Z,98932.16
2022-08-28T05:21:50.243Z,98929.47
2022-08-28T05:24:18.621Z,98943.13
2022-08-28T05:26:48.223Z,98965.88
2022-08-28T05:29:18.123Z,98964.38
2022-08-28T05:31:46.600Z,98965.97
2022-08-28T05:34:15.443Z,98970.47
2022-08-28T05:36:44.320Z,98966.97
2022-08-28T05:39:13.211Z,98982.50
2022-08-28T05:41:44.821Z,98979.97
2022-08-28T05:44:15.413Z,98980.72
2022-08-28T05:46:47.965Z,98976.06
2022-08-28T05:49:19.580Z,98903.16
2022-08-28T05:51:49.637Z,98964.38
2022-08-28T05:54:18.410Z,98939.41
2022-08-28T05:56:47.413Z,98984.00
2022-08-28T05:59:16.672Z,98980.16
2022-08-28T06:01:49.185Z,98981.53
2022-08-28T06:04:26.251Z,98977.06
2022-08-28T06:06:55.317Z,98944.19
2022-08-28T06:09:29.696Z,98955.72
2022-08-28T06:12:01.862Z,98988.00
2022-08-28T06:14:33.785Z,98971.66
2022-08-28T06:17:03.273Z,98986.19
2022-08-28T06:19:39.414Z,98944.56
2022-08-28T06:22:12.385Z,98957.25
2022-08-28T06:24:41.036Z,98993.75
2022-08-28T06:27:09.173Z,98979.66
2022-08-28T06:29:37.488Z,98976.47
2022-08-28T06:32:06.269Z,98950.78
2022-08-28T06:34:34.589Z,98991.00
2022-08-28T06:37:02.867Z,98975.91
2022-08-28T06:39:31.526Z,98945.91
2022-08-28T06:42:00.131Z,98987.28
2022-08-28T06:44:32.533Z,98937.88
2022-08-28T06:47:00.819Z,98933.06
2022-08-28T06:49:29.057Z,98959.63
2022-08-28T06:51:57.579Z,98982.59
2022-08-28T06:54:55.606Z,98984.22
2022-08-28T06:57:26.757Z,98962.38
2022-08-28T06:59:58.874Z,98947.91
2022-08-28T07:02:28.432Z,98958.69
2022-08-28T07:04:56.940Z,98953.75
2022-08-28T07:07:31.573Z,98985.88
2022-08-28T07:10:00.942Z,98985.03
2022-08-28T07:12:29.574Z,98984.81
2022-08-28T07:14:58.726Z,98987.75
2022-08-28T07:17:27.333Z,98990.13
2022-08-28T07:19:56.006Z,98984.88
2022-08-28T07:22:26.890Z,98971.84
2022-08-28T07:24:56.084Z,98978.13
2022-08-28T07:27:25.483Z,98982.56
2022-08-28T07:29:53.710Z,98902.00
2022-08-28T07:32:22.448Z,98968.53
2022-08-28T07:34:50.945Z,98975.34
2022-08-28T07:37:19.167Z,98945.63
2022-08-28T07:39:47.556Z,98990.16
2022-08-28T07:42:35.863Z,98954.03
2022-08-28T07:45:05.221Z,98979.84
2022-08-28T07:47:33.398Z,98914.63
2022-08-28T07:50:02.608Z,98978.25
2022-08-28T07:52:30.922Z,98941.38
2022-08-28T07:54:59.737Z,98975.00
2022-08-28T07:57:28.128Z,98975.53
2022-08-28T07:59:57.059Z,98933.03
2022-08-28T08:02:25.538Z,98938.91
2022-08-28T08:04:53.911Z,98970.06
2022-08-28T08:07:22.379Z,98986.81
2022-08-28T08:09:50.469Z,98984.22
2022-08-28T08:12:18.810Z,98987.25
2022-08-28T08:14:49.851Z,98985.63
2022-08-28T08:17:17.701Z,98977.81
2022-08-28T08:19:45.896Z,98984.88
2022-08-28T08:22:14.347Z,98970.41
2022-08-28T08:24:43.672Z,98981.06
2022-08-28T08:27:11.914Z,98954.31
2022-08-28T08:29:40.336Z,98976.94
2022-08-28T08:32:11.261Z,98969.69
2022-08-28T08:34:43.184Z,98951.59
2022-08-28T08:37:13.548Z,98975.47
2022-08-28T08:39:43.352Z,98965.25
2022-08-28T08:42:26.337Z,98978.13
2022-08-28T08:44:57.774Z,98907.44
2022-08-28T08:47:48.941Z,98973.75
2022-08-28T08:50:26.407Z,98975.50
2022-08-28T08:53:06.998Z,98980.28
2022-08-28T08:55:43.189Z,98967.84
2022-08-28T08:58:52.706Z,98966.75
2022-08-28T09:01:37.235Z,98968.66
2022-08-28T09:04:49.069Z,98964.81
2022-08-28T09:07:24.357Z,98961.84
2022-08-28T09:09:55.712Z,98930.84
2022-08-28T09:12:29.751Z,98970.72
2022-08-28T09:15:40.313Z,98966.84
2022-08-28T09:18:27.361Z,98959.28
2022-08-28T09:20:59.227Z,98923.34
2022-08-28T09:23:30.026Z,98941.63
2022-08-28T09:26:01.618Z,98940.44
2022-08-28T09:28:41.075Z,98957.59
2022-08-28T09:31:19.610Z,98968.50
2022-08-28T09:33:52.210Z,98965.69
2022-08-28T09:36:37.998Z,98959.09
2022-08-28T09:39:17.633Z,98963.66
2022-08-28T09:42:09.314Z,98930.88
2022-08-28T09:45:18.800Z,98965.50
2022-08-28T09:47:58.554Z,98960.50
2022-08-28T09:50:42.641Z,98962.94
2022-08-28T09:53:11.784Z,98961.41
2022-08-28T09:56:16.429Z,98941.53
2022-08-28T09:58:51.761Z,98950.28
2022-08-28T10:01:38.111Z,98953.78
2022-08-28T10:04:27.794Z,98963.41
2022-08-28T10:06:58.853Z,98952.22
2022-08-28T10:09:59.021Z,98950.91
2022-08-28T10:13:10.990Z,98946.78
2022-08-28T10:16:05.148Z,98946.16
2022-08-28T10:18:51.818Z,98947.03
2022-08-28T10:21:45.099Z,98952.06
2022-08-28T10:24:51.753Z,98946.16
2022-08-28T10:27:42.874Z,98953.34
2022-08-28T10:30:19.525Z,98940.44
2022-08-28T10:33:06.091Z,98938.69
2022-08-28T10:36:02.216Z,98934.91
2022-08-28T10:39:27.589Z,98933.63
2022-08-28T10:42:04.865Z,98937.63
2022-08-28T10:44:55.864Z,98938.00
2022-08-28T10:47:28.633Z,98933.44
2022-08-28T10:50:02.384Z,98917.22
2022-08-28T10:52:46.824Z,98943.16
2022-08-28T10:55:24.749Z,98938.53
2022-08-28T10:58:06.262Z,98934.56
2022-08-28T11:01:07.546Z,98921.13
2022-08-28T11:03:46.912Z,98893.25
2022-08-28T11:06:25.415Z,98891.59
2022-08-28T11:09:20.913Z,98892.81
2022-08-28T11:11:51.212Z,98919.09
2022-08-28T11:14:46.369Z,98893.78
2022-08-28T11:17:29.148Z,98925.50
2022-08-28T11:20:25.072Z,98925.13
2022-08-28T11:23:14.170Z,98932.03
2022-08-28T11:25:54.865Z,98921.00
2022-08-28T11:28:27.775Z,98918.22
2022-08-28T11:31:04.404Z,98916.78
2022-08-28T11:33:42.490Z,98893.28
2022-08-28T11:36:32.839Z,98905.25
2022-08-28T11:39:21.182Z,98916.72
2022-08-28T11:42:11.344Z,98920.63
2022-08-28T11:44:44.230Z,98884.16
2022-08-28T11:47:40.396Z,98910.00
2022-08-28T11:50:24.366Z,98914.63
2022-08-28T11:53:27.449Z,98878.06
2022-08-28T11:56:31.094Z,98869.47
2022-08-28T11:59:34.884Z,98918.94
2022-08-28T12:02:41.128Z,98920.56
2022-08-28T12:05:16.893Z,98915.72
2022-08-28T12:07:51.770Z,98909.63
2022-08-28T12:10:27.574Z,98907.16
2022-08-28T12:13:02.331Z,98900.63
2022-08-28T12:15:31.203Z,98863.69
2022-08-28T12:18:13.696Z,98861.28
2022-08-28T12:20:50.993Z,98894.19
2022-08-28T12:23:44.050Z,98883.31
2022-08-28T12:26:26.588Z,98876.69
2022-08-28T12:29:38.882Z,98856.59
2022-08-28T12:32:56.224Z,98896.81
2022-08-28T12:35:30.069Z,98881.19
2022-08-28T12:38:05.100Z,98874.41
2022-08-28T12:40:53.221Z,98847.66
2022-08-28T12:43:41.657Z,98871.19
2022-08-28T12:46:31.453Z,98869.84
2022-08-28T12:49:03.650Z,98812.53
2022-08-28T12:51:38.759Z,98863.16
2022-08-28T12:54:09.097Z,98838.22
2022-08-28T12:56:41.069Z,98872.25
2022-08-28T12:59:41.222Z,98806.34
2022-08-28T13:02:50.882Z,98878.06
2022-08-28T13:05:36.484Z,98835.75
2022-08-28T13:08:10.063Z,98852.34
2022-08-28T13:10:49.895Z,98835.91
2022-08-28T13:13:37.372Z,98841.63
2022-08-28T13:16:11.255Z,98866.09
2022-08-28T13:18:51.735Z,98871.16
2022-08-28T13:21:32.482Z,98866.09
2022-08-28T13:24:22.446Z,98862.06
2022-08-28T13:27:17.506Z,98851.16
2022-08-28T13:30:31.469Z,98865.63
2022-08-28T13:33:27.400Z,98858.59
2022-08-28T13:35:55.729Z,98828.09
2022-08-28T13:38:25.419Z,98859.38
2022-08-28T13:40:59.695Z,98840.78
2022-08-28T13:43:42.910Z,98862.59
2022-08-28T13:46:11.613Z,98861.72
2022-08-28T13:48:42.469Z,98852.06
2022-08-28T13:51:14.274Z,98861.81
2022-08-28T13:53:50.798Z,98804.94
2022-08-28T13:56:21.972Z,98844.91
2022-08-28T13:58:57.952Z,98851.53
2022-08-28T14:01:46.891Z,98807.31
2022-08-28T14:04:15.043Z,98833.91
2022-08-28T14:06:44.526Z,98844.88
2022-08-28T14:09:17.756Z,98804.13
2022-08-28T14:11:51.081Z,98814.50
2022-08-28T14:14:19.395Z,98843.91
2022-08-28T14:16:50.380Z,98842.88
2022-08-28T14:19:18.565Z,98819.97
2022-08-28T14:21:47.248Z,98838.69
2022-08-28T14:24:15.579Z,98849.19
2022-08-28T14:26:45.736Z,98809.03
2022-08-28T14:29:17.617Z,98837.44
2022-08-28T14:31:46.928Z,98848.78
2022-08-28T14:34:21.186Z,98849.09
2022-08-28T14:36:51.192Z,98839.97
2022-08-28T14:39:19.292Z,98840.25
2022-08-28T14:41:50.039Z,98826.47
2022-08-28T14:44:20.712Z,98848.06
2022-08-28T14:46:50.350Z,98837.41
2022-08-28T14:49:20.415Z,98807.59
2022-08-28T14:51:50.167Z,98854.69
2022-08-28T14:54:21.459Z,98817.84
2022-08-28T14:56:50.910Z,98856.72
2022-08-28T14:59:24.777Z,98845.91
2022-08-28T15:01:55.779Z,98856.94
2022-08-28T15:04:26.683Z,98850.50
2022-08-28T15:06:59.941Z,98853.41
2022-08-28T15:09:28.973Z,98819.22
2022-08-28T15:11:57.015Z,98837.78
2022-08-28T15:14:25.960Z,98854.81
2022-08-28T15:16:54.228Z,98820.94
2022-08-28T15:19:23.485Z,98843.94
2022-08-28T15:21:55.734Z,98859.31
2022-08-28T15:24:31.501Z,98857.84
2022-08-28T15:26:59.972Z,98853.50
2022-08-28T15:29:30.091Z,98842.09
2022-08-28T15:32:00.767Z,98818.28
2022-08-28T15:34:29.679Z,98854.97
2022-08-28T15:37:00.710Z,98799.41
2022-08-28T15:39:50.413Z,98861.53
2022-08-28T15:42:18.527Z,98852.81
2022-08-28T15:44:47.026Z,98836.16
2022-08-28T15:47:16.580Z,98816.59
2022-08-28T15:49:49.712Z,98851.88
2022-08-28T15:52:19.599Z,98824.84
2022-08-28T15:54:49.763Z,98842.94
2022-08-28T15:57:18.787Z,98853.94
2022-08-28T15:59:49.422Z,98808.34
2022-08-28T16:02:22.428Z,98857.84
2022-08-28T16:04:51.639Z,98853.78
2022-08-28T16:07:22.091Z,98854.06
2022-08-28T16:09:50.700Z,98856.84
2022-08-28T16:12:19.685Z,98862.59
2022-08-28T16:14:47.755Z,98849.53
2022-08-28T16:17:15.909Z,98856.94
2022-08-28T16:19:45.256Z,98865.16
2022-08-28T16:22:17.246Z,98861.38
2022-08-28T16:24:46.825Z,98812.72
2022-08-28T16:27:15.872Z,98852.63
2022-08-28T16:29:45.490Z,98865.78
2022-08-28T16:32:14.153Z,98863.31
2022-08-28T16:34:44.807Z,98847.75
2022-08-28T16:37:13.458Z,98864.16
2022-08-28T16:39:46.886Z,98819.00
2022-08-28T16:42:15.618Z,98858.13
2022-08-28T16:44:43.804Z,98873.94
2022-08-28T16:47:12.119Z,98837.28
2022-08-28T16:49:40.908Z,98875.00
2022-08-28T16:52:08.922Z,98873.09
2022-08-28T16:54:37.058Z,98876.09
2022-08-28T16:57:13.513Z,98877.41
2022-08-28T16:59:41.932Z,98883.13
2022-08-28T17:02:10.306Z,98889.59
2022-08-28T17:04:42.035Z,98891.47
2022-08-28T17:07:10.524Z,98863.81
2022-08-28T17:09:38.880Z,98859.09
2022-08-28T17:12:07.467Z,98857.16
2022-08-28T17:14:36.208Z,98889.94
2022-08-28T17:17:04.820Z,98889.31
2022-08-28T17:19:34.296Z,98904.06
2022-08-28T17:22:21.029Z,98901.00
2022-08-28T17:24:52.650Z,98903.13
2022-08-28T17:27:22.269Z,98892.69
2022-08-28T17:29:51.091Z,98765.97
2022-08-28T17:32:20.384Z,98905.69
2022-08-28T17:34:48.594Z,98912.06
2022-08-28T17:37:17.306Z,98883.59
2022-08-28T17:39:45.892Z,98874.91
2022-08-28T17:42:14.199Z,98873.25
2022-08-28T17:44:43.099Z,98855.00
2022-08-28T17:47:12.290Z,98917.31
2022-08-28T17:49:41.010Z,98906.88
2022-08-28T17:52:09.040Z,98922.19
2022-08-28T17:54:39.181Z,98923.78
2022-08-28T17:57:08.374Z,98924.47
2022-08-28T17:59:36.745Z,98886.22
2022-08-28T18:02:05.194Z,98931.13
2022-08-28T18:04:33.563Z,98933.00
2022-08-28T18:07:02.019Z,98895.75
2022-08-28T18:09:30.381Z,98941.25
2022-08-28T18:11:59.257Z,98903.09
2022-08-28T18:14:27.802Z,98950.31
2022-08-28T18:16:56.811Z,98947.06
2022-08-28T18:19:24.961Z,98935.09
2022-08-28T18:21:53.122Z,98943.31
2022-08-28T18:24:21.400Z,98916.69
2022-08-28T18:26:49.747Z,98955.84
2022-08-28T18:29:17.972Z,98951.09
2022-08-28T18:31:46.764Z,98956.97
2022-08-28T18:34:15.370Z,98951.13
2022-08-28T18:36:44.187Z,98954.06
2022-08-28T18:39:13.080Z,98956.00
2022-08-28T18:41:43.755Z,98951.75
2022-08-28T18:44:16.003Z,98953.31
2022-08-28T18:46:44.414Z,98961.38
2022-08-28T18:49:13.317Z,98919.19
2022-08-28T18:51:44.309Z,98917.97
2022-08-28T18:54:16.820Z,98896.69
2022-08-28T18:56:49.034Z,98973.44
2022-08-28T18:59:19.233Z,98934.84
2022-08-28T19:01:47.640Z,98934.81
2022-08-28T19:04:15.986Z,98970.97
2022-08-28T19:06:45.213Z,98932.84
2022-08-28T19:09:20.641Z,98978.09
2022-08-28T19:11:49.406Z,98933.75
2022-08-28T19:14:18.256Z,98983.16
2022-08-28T19:16:46.908Z,98986.97
2022-08-28T19:19:15.651Z,98944.53
2022-08-28T19:21:44.731Z,98931.44
2022-08-28T19:24:16.613Z,98990.28
2022-08-28T19:26:47.364Z,98984.38
2022-08-28T19:29:17.608Z,98983.06
2022-08-28T19:31:46.456Z,98992.66
2022-08-28T19:34:15.258Z,98991.22
2022-08-28T19:36:43.791Z,98943.94
2022-08-28T19:39:12.882Z,98982.47
2022-08-28T19:41:41.776Z,98984.38
2022-08-28T19:44:11.202Z,98948.28
2022-08-28T19:46:40.477Z,98944.25
2022-08-28T19:49:09.584Z,98975.75
2022-08-28T19:51:39.647Z,98978.47
2022-08-28T19:54:14.425Z,98967.22
2022-08-28T19:56:43.140Z,98988.63
2022-08-28T19:59:11.344Z,98945.19
2022-08-28T20:01:46.491Z,98991.22
2022-08-28T20:04:17.828Z,98965.00
2022-08-28T20:06:46.700Z,99008.88
2022-08-28T20:09:17.715Z,98964.97
2022-08-28T20:11:47.137Z,99011.81
2022-08-28T20:14:18.606Z,99005.75
2022-08-28T20:16:51.288Z,98961.50
2022-08-28T20:19:20.791Z,99013.75
2022-08-28T20:21:50.327Z,99008.56
2022-08-28T20:24:24.527Z,99021.63
2022-08-28T20:26:53.648Z,99021.53
2022-08-28T20:29:24.499Z,99019.66
2022-08-28T20:31:53.414Z,99018.47
2022-08-28T20:34:22.159Z,99011.75
2022-08-28T20:36:50.512Z,99016.13
2022-08-28T20:39:20.971Z,99011.53
2022-08-28T20:41:49.511Z,98994.53
2022-08-28T20:44:20.395Z,98975.03
2022-08-28T20:46:51.633Z,99024.59
2022-08-28T20:49:22.457Z,99017.75
2022-08-28T20:51:53.729Z,99011.06
2022-08-28T20:54:24.404Z,99018.59
2022-08-28T20:56:54.540Z,99012.56
2022-08-28T20:59:22.939Z,99008.34
2022-08-28T21:01:52.147Z,99013.81
2022-08-28T21:04:20.574Z,99009.47
2022-08-28T21:08:24.840Z,98887.19
2022-08-28T21:10:36.622Z,98995.78
2022-08-28T21:13:05.938Z,98961.09
2022-08-28T21:15:36.430Z,99002.47
2022-08-28T21:18:05.479Z,98990.88
2022-08-28T21:20:33.508Z,99007.75
2022-08-28T21:23:01.864Z,98991.63
2022-08-28T21:25:30.362Z,98996.72
2022-08-28T21:27:58.393Z,98984.63
2022-08-28T21:30:32.370Z,98980.88
2022-08-28T21:33:00.601Z,98980.84
2022-08-28T21:35:29.200Z,98976.38
2022-08-28T21:37:57.387Z,99016.50
2022-08-28T21:40:25.531Z,99024.31
2022-08-28T21:42:53.673Z,98974.59
2022-08-28T21:45:22.691Z,99018.44
2022-08-28T21:47:50.736Z,98983.88
2022-08-28T21:50:20.871Z,98999.97
2022-08-28T21:52:49.127Z,98976.94
2022-08-28T21:55:17.611Z,99007.00
2022-08-28T21:57:45.606Z,99011.06
2022-08-28T22:00:23.277Z,98997.69
2022-08-28T22:02:51.701Z,99020.38
2022-08-28T22:05:20.596Z,98976.22
2022-08-28T22:07:48.745Z,98999.22
2022-08-28T22:10:16.889Z,98976.13
2022-08-28T22:12:44.916Z,99022.84
2022-08-28T22:15:15.445Z,99030.34
2022-08-28T22:17:43.616Z,99029.88
2022-08-28T22:20:12.638Z,99033.81
2022-08-28T22:22:59.553Z,99030.50
2022-08-28T22:25:27.908Z,99006.72
2022-08-28T22:27:56.560Z,99043.88
2022-08-28T22:30:25.756Z,99015.00
2022-08-28T22:32:54.301Z,99049.22
2022-08-28T22:35:22.590Z,99035.75
2022-08-28T22:37:50.689Z,99000.19
2022-08-28T22:40:19.030Z,99003.97
2022-08-28T22:42:47.544Z,99050.47
2022-08-28T22:45:15.917Z,99041.75
2022-08-28T22:47:44.392Z,99042.59
2022-08-28T22:50:12.676Z,99054.00
2022-08-28T22:52:43.397Z,99048.00
2022-08-28T22:55:16.490Z,99042.97
2022-08-28T22:57:44.922Z,99039.97
2022-08-28T23:00:20.017Z,99046.78
2022-08-28T23:02:48.988Z,99045.84
2022-08-28T23:05:17.973Z,99048.97
2022-08-28T23:07:47.716Z,99021.22
2022-08-28T23:10:16.428Z,99044.47
2022-08-28T23:12:44.752Z,99031.66
2022-08-28T23:15:17.488Z,98967.66
2022-08-28T23:17:45.856Z,99047.31
2022-08-28T23:20:22.808Z,99055.88
2022-08-28T23:22:58.113Z,99039.31
2022-08-28T23:25:26.818Z,99057.22
2022-08-28T23:27:56.067Z,99054.72
2022-08-28T23:30:25.151Z,99043.59
2022-08-28T23:32:54.248Z,99052.84
2022-08-28T23:35:23.238Z,99059.34
2022-08-28T23:37:52.245Z,99066.25
2022-08-28T23:40:24.046Z,99074.09
2022-08-28T23:42:53.890Z,99015.56
2022-08-28T23:45:22.462Z,99062.78
2022-08-28T23:47:51.806Z,98932.69
2022-08-28T23:50:23.722Z,99075.25
2022-08-28T23:52:53.712Z,99077.59
2022-08-28T23:55:22.715Z,99089.50
2022-08-28T23:57:55.575Z,99087.66
